Terminal Aerodrome Forecast
Issued by NWS Lake Charles, LA

Home | Current Version | Previous Version | Text Only | Print | Product List | Glossary On
Versions: 1 2 3 4 5 6 7 8 9 10 11 12 13 14 15 16 17 18 19 20 21 22 23 24
453
FTUS44 KLCH 230715 AAA
TAFBPT
TAF AMD
KBPT 230715Z 2307/2406 35008KT P6SM OVC009
     FM230900 34007KT 4SM BR OVC007
     FM231500 34008KT P6SM BKN015
     FM231800 31007KT P6SM BKN050
     FM240000 34008KT P6SM OVC025=

USA.gov is the U.S. government's official web portal to all federal, state and local government web resources and services.